Time;durP1;ratioP1;P1;durP2;ratioP2;P2;SDS_P1;SDS_P2;PMS_P1;PMS_P2;Temp;Humidity;BMP_temperature;BMP_pressure;BME280_temperature;BME280_humidity;BME280_pressure;Samples;Min_cycle;Max_cycle;Signal;HPM_P1;HPM_P2
2022/04/19 00:00:27;;;;;;;0.17;0.17;;;;;;;;;;5017798;28;20351;-90
2022/04/19 00:02:53;;;;;;;0.10;0.10;;;;;;;;;;5017818;28;20484;-89
2022/04/19 00:05:19;;;;;;;0.10;0.10;;;;;;;;;;5017743;28;20041;-89
2022/04/19 00:07:45;;;;;;;0.10;0.10;;;;;;;;;;5034518;28;20047;-89
2022/04/19 00:10:11;;;;;;;0.10;0.10;;;;;;;;;;5017677;28;20404;-88
2022/04/19 00:12:37;;;;;;;0.52;0.52;;;;;;;;;;5017557;28;20118;-89
2022/04/19 00:15:04;;;;;;;0.10;0.10;;;;;;;;;;5017763;28;20156;-90
2022/04/19 00:17:30;;;;;;;0.10;0.10;;;;;;;;;;5017657;28;20044;-88
2022/04/19 00:19:56;;;;;;;0.10;0.10;;;;;;;;;;5017794;28;20033;-89
2022/04/19 00:22:22;;;;;;;0.10;0.10;;;;;;;;;;5033753;28;20519;-89
2022/04/19 00:24:48;;;;;;;0.10;0.10;;;;;;;;;;5017324;28;20052;-88
2022/04/19 00:27:14;;;;;;;0.10;0.10;;;;;;;;;;5033783;28;20041;-90
2022/04/19 00:29:41;;;;;;;0.10;0.10;;;;;;;;;;5033920;28;20400;-89
2022/04/19 00:32:11;;;;;;;0.10;0.10;;;;;;;;;;5017644;28;20041;-89
2022/04/19 00:34:38;;;;;;;0.43;0.40;;;;;;;;;;5017951;28;20041;-90
2022/04/19 00:37:05;;;;;;;0.10;0.10;;;;;;;;;;5017769;28;20411;-90
2022/04/19 00:39:31;;;;;;;0.10;0.10;;;;;;;;;;5017399;28;20045;-88
2022/04/19 00:41:57;;;;;;;0.10;0.10;;;;;;;;;;5033494;28;20385;-88
2022/04/19 00:44:23;;;;;;;0.10;0.10;;;;;;;;;;5033571;28;20036;-89
2022/04/19 00:46:49;;;;;;;0.10;0.10;;;;;;;;;;5033667;28;20045;-89
2022/04/19 00:49:17;;;;;;;0.10;0.10;;;;;;;;;;5017385;28;20048;-89
2022/04/19 00:51:43;;;;;;;0.10;0.10;;;;;;;;;;5033549;28;20051;-89
2022/04/19 00:54:09;;;;;;;0.10;0.10;;;;;;;;;;5019826;28;20037;-89
2022/04/19 00:56:35;;;;;;;0.10;0.10;;;;;;;;;;5020292;28;20048;-90
2022/04/19 00:59:02;;;;;;;0.20;0.20;;;;;;;;;;5020750;28;20468;-89
2022/04/19 01:01:28;;;;;;;0.10;0.10;;;;;;;;;;5020715;28;20045;-89
2022/04/19 01:03:54;;;;;;;0.10;0.10;;;;;;;;;;5020810;28;20125;-89
2022/04/19 01:06:20;;;;;;;0.10;0.10;;;;;;;;;;5020508;28;20044;-89
2022/04/19 01:08:46;;;;;;;0.10;0.10;;;;;;;;;;5020810;28;20048;-89
2022/04/19 01:13:56;;;;;;;0.10;0.10;;;;;;;;;;5023319;28;20084;-89
2022/04/19 01:16:22;;;;;;;0.15;0.15;;;;;;;;;;5020386;28;20080;-89
2022/04/19 01:18:48;;;;;;;0.10;0.10;;;;;;;;;;5020529;28;20048;-90
2022/04/19 01:21:14;;;;;;;0.10;0.10;;;;;;;;;;5020406;28;20037;-89
2022/04/19 01:23:41;;;;;;;0.10;0.10;;;;;;;;;;5036821;28;20060;-89
2022/04/19 01:26:07;;;;;;;0.17;0.10;;;;;;;;;;5036949;28;20484;-89
2022/04/19 01:28:33;;;;;;;0.10;0.10;;;;;;;;;;5020793;28;20069;-89
2022/04/19 01:30:59;;;;;;;0.15;0.15;;;;;;;;;;5039831;28;20483;-90
2022/04/19 01:33:25;;;;;;;0.10;0.10;;;;;;;;;;5042489;28;20040;-90
2022/04/19 01:35:51;;;;;;;0.10;0.10;;;;;;;;;;5021853;28;20456;-89
2022/04/19 01:38:17;;;;;;;0.05;0.05;;;;;;;;;;5020322;28;20128;-89
2022/04/19 01:40:43;;;;;;;0.10;0.10;;;;;;;;;;5040225;28;20072;-89
2022/04/19 01:43:09;;;;;;;0.10;0.10;;;;;;;;;;5024446;28;20063;-90
2022/04/19 01:45:35;;;;;;;0.15;0.15;;;;;;;;;;5020366;28;20535;-89
2022/04/19 01:48:01;;;;;;;0.10;0.10;;;;;;;;;;5035744;28;20048;-89
2022/04/19 01:50:28;;;;;;;0.10;0.10;;;;;;;;;;5019740;28;20068;-89
2022/04/19 01:52:59;;;;;;;0.10;0.10;;;;;;;;;;5035907;28;20037;-89
2022/04/19 01:55:26;;;;;;;0.10;0.10;;;;;;;;;;5020339;28;20049;-90
2022/04/19 01:57:53;;;;;;;0.10;0.10;;;;;;;;;;5020012;28;20377;-89
2022/04/19 02:00:19;;;;;;;0.10;0.10;;;;;;;;;;5035948;28;20037;-89
2022/04/19 02:02:46;;;;;;;0.10;0.10;;;;;;;;;;5035703;28;20095;-89
2022/04/19 02:05:12;;;;;;;0.10;0.10;;;;;;;;;;5019074;28;20044;-90
2022/04/19 02:07:38;;;;;;;0.10;0.10;;;;;;;;;;5019571;28;20132;-90
2022/04/19 02:10:05;;;;;;;0.10;0.10;;;;;;;;;;5019561;28;20045;-89
2022/04/19 02:12:31;;;;;;;0.10;0.10;;;;;;;;;;5035352;28;20098;-89
2022/04/19 02:14:58;;;;;;;0.10;0.10;;;;;;;;;;5019322;28;20044;-89
2022/04/19 02:17:24;;;;;;;0.10;0.10;;;;;;;;;;5019167;28;20203;-89
2022/04/19 02:20:00;;;;;;;0.20;0.20;;;;;;;;;;5003573;28;20051;-90
2022/04/19 02:22:27;;;;;;;0.10;0.10;;;;;;;;;;5019297;28;20045;-89
2022/04/19 02:24:55;;;;;;;0.10;0.10;;;;;;;;;;5035439;28;20492;-89
2022/04/19 02:27:21;;;;;;;0.30;0.30;;;;;;;;;;5019167;28;20037;-89
2022/04/19 02:29:47;;;;;;;0.10;0.10;;;;;;;;;;5019008;28;20044;-88
2022/04/19 02:32:13;;;;;;;0.10;0.10;;;;;;;;;;5019198;28;20052;-90
2022/04/19 02:34:39;;;;;;;0.10;0.10;;;;;;;;;;5019138;28;20072;-90
2022/04/19 02:37:05;;;;;;;0.40;0.40;;;;;;;;;;5018743;28;20095;-90
2022/04/19 02:39:31;;;;;;;0.10;0.10;;;;;;;;;;5035404;28;20036;-90
2022/04/19 02:41:58;;;;;;;0.10;0.10;;;;;;;;;;5019267;28;20043;-90
2022/04/19 02:44:24;;;;;;;0.10;0.10;;;;;;;;;;5035256;28;20069;-90
2022/04/19 02:46:50;;;;;;;0.10;0.10;;;;;;;;;;5019400;28;20437;-90
2022/04/19 02:49:16;;;;;;;0.10;0.10;;;;;;;;;;5018863;28;20080;-89
2022/04/19 02:51:42;;;;;;;0.10;0.10;;;;;;;;;;5035053;28;20045;-89
2022/04/19 02:54:08;;;;;;;0.10;0.10;;;;;;;;;;5018781;28;20131;-89
2022/04/19 02:56:34;;;;;;;0.10;0.10;;;;;;;;;;5034915;28;20549;-89
2022/04/19 02:59:00;;;;;;;0.10;0.10;;;;;;;;;;5034634;28;20369;-89
2022/04/19 03:01:27;;;;;;;0.10;0.10;;;;;;;;;;5018385;28;20446;-88
2022/04/19 03:03:52;;;;;;;0.10;0.10;;;;;;;;;;5034760;28;20098;-88
2022/04/19 03:06:19;;;;;;;0.10;0.10;;;;;;;;;;5035224;28;20135;-89
2022/04/19 03:08:45;;;;;;;0.10;0.10;;;;;;;;;;5018517;28;20488;-89
2022/04/19 03:11:12;;;;;;;0.25;0.25;;;;;;;;;;5018060;28;20106;-89
2022/04/19 03:13:38;;;;;;;0.10;0.10;;;;;;;;;;5018296;28;20187;-89
2022/04/19 03:16:04;;;;;;;0.10;0.10;;;;;;;;;;5017630;28;20041;-89
2022/04/19 03:18:33;;;;;;;0.10;0.10;;;;;;;;;;5034821;28;20029;-89
2022/04/19 03:20:59;;;;;;;0.10;0.10;;;;;;;;;;5018244;28;20033;-89
2022/04/19 03:28:54;;;;;;;0.10;0.10;;;;;;;;;;5021154;28;20037;-91
2022/04/19 03:31:23;;;;;;;0.10;0.10;;;;;;;;;;5034737;28;20044;-91
2022/04/19 03:33:53;;;;;;;0.10;0.10;;;;;;;;;;5019391;28;20438;-90
2022/04/19 03:36:22;;;;;;;0.20;0.20;;;;;;;;;;5018655;28;20476;-89
2022/04/19 03:38:48;;;;;;;0.10;0.10;;;;;;;;;;5018530;28;20041;-88
2022/04/19 03:41:14;;;;;;;0.10;0.10;;;;;;;;;;5018028;28;20033;-89
2022/04/19 03:43:41;;;;;;;0.10;0.10;;;;;;;;;;5018004;28;20365;-89
2022/04/19 03:46:08;;;;;;;0.00;0.00;;;;;;;;;;5018199;28;20041;-89
2022/04/19 03:48:34;;;;;;;0.10;0.10;;;;;;;;;;5018486;28;20400;-89
2022/04/19 03:51:00;;;;;;;0.10;0.10;;;;;;;;;;5017857;28;20458;-89
2022/04/19 03:53:26;;;;;;;0.10;0.10;;;;;;;;;;5017818;28;20075;-89
2022/04/19 03:55:52;;;;;;;0.10;0.10;;;;;;;;;;5017838;28;20041;-89
2022/04/19 03:58:18;;;;;;;0.10;0.10;;;;;;;;;;5018262;28;20048;-90
2022/04/19 04:00:44;;;;;;;0.10;0.10;;;;;;;;;;5018257;28;20033;-90
2022/04/19 04:03:10;;;;;;;0.10;0.10;;;;;;;;;;5017870;28;20041;-90
2022/04/19 04:05:36;;;;;;;0.10;0.10;;;;;;;;;;5017971;28;20041;-90
2022/04/19 04:08:02;;;;;;;0.10;0.10;;;;;;;;;;5034449;28;20037;-90
2022/04/19 04:10:28;;;;;;;0.10;0.10;;;;;;;;;;5017887;28;20396;-89
2022/04/19 04:12:54;;;;;;;0.28;0.28;;;;;;;;;;5017648;28;20056;-90
2022/04/19 04:15:20;;;;;;;0.10;0.10;;;;;;;;;;5017793;28;20059;-89
2022/04/19 04:17:46;;;;;;;0.10;0.10;;;;;;;;;;5017637;28;20041;-89
2022/04/19 04:20:12;;;;;;;0.10;0.10;;;;;;;;;;5017845;28;20137;-89
2022/04/19 04:22:38;;;;;;;0.10;0.10;;;;;;;;;;5034025;28;20098;-89
2022/04/19 04:25:04;;;;;;;0.10;0.10;;;;;;;;;;5017806;28;20036;-89
2022/04/19 04:27:30;;;;;;;0.20;0.20;;;;;;;;;;5034110;28;20037;-89
2022/04/19 04:29:56;;;;;;;0.10;0.10;;;;;;;;;;5021507;28;20102;-89
2022/04/19 04:32:22;;;;;;;0.10;0.10;;;;;;;;;;5037815;28;20045;-89
2022/04/19 04:34:48;;;;;;;0.10;0.10;;;;;;;;;;5021611;28;20048;-89
2022/04/19 04:37:14;;;;;;;0.10;0.10;;;;;;;;;;5020965;28;20045;-89
2022/04/19 04:39:40;;;;;;;0.10;0.10;;;;;;;;;;5037889;28;20041;-89
2022/04/19 04:42:06;;;;;;;0.10;0.10;;;;;;;;;;5037374;28;20040;-89
2022/04/19 04:44:32;;;;;;;0.10;0.10;;;;;;;;;;5037749;28;20435;-89
2022/04/19 04:49:43;;;;;;;0.10;0.10;;;;;;;;;;5037521;28;20480;-89
2022/04/19 04:52:10;;;;;;;0.10;0.10;;;;;;;;;;5020940;28;20041;-89
2022/04/19 04:54:39;;;;;;;0.00;0.00;;;;;;;;;;5021143;28;20083;-90
2022/04/19 04:57:05;;;;;;;0.10;0.10;;;;;;;;;;5021423;28;20045;-90
2022/04/19 04:59:32;;;;;;;0.08;0.08;;;;;;;;;;5021075;28;20500;-90
2022/04/19 05:01:59;;;;;;;0.10;0.10;;;;;;;;;;5021023;28;20226;-90
2022/04/19 05:04:25;;;;;;;0.10;0.10;;;;;;;;;;5021203;28;20524;-91
2022/04/19 05:06:51;;;;;;;0.10;0.10;;;;;;;;;;5021486;28;20423;-91
2022/04/19 05:09:17;;;;;;;0.03;0.03;;;;;;;;;;5020984;28;20141;-90
2022/04/19 05:11:46;;;;;;;0.10;0.10;;;;;;;;;;5020664;28;20143;-88
2022/04/19 05:14:12;;;;;;;0.00;0.00;;;;;;;;;;5036876;28;20076;-88
2022/04/19 05:16:38;;;;;;;0.10;0.10;;;;;;;;;;5020637;28;20048;-88
2022/04/19 05:19:04;;;;;;;0.10;0.10;;;;;;;;;;5036848;28;20527;-89
2022/04/19 05:21:30;;;;;;;0.10;0.10;;;;;;;;;;5020522;28;20064;-89
2022/04/19 05:23:56;;;;;;;0.10;0.10;;;;;;;;;;5020664;28;20033;-90
2022/04/19 05:26:28;;;;;;;0.10;0.10;;;;;;;;;;5020820;28;20045;-90
2022/04/19 05:28:54;;;;;;;0.10;0.10;;;;;;;;;;5021232;28;20041;-89
2022/04/19 05:31:19;;;;;;;0.10;0.10;;;;;;;;;;5020276;28;20110;-88
2022/04/19 05:33:45;;;;;;;0.00;0.00;;;;;;;;;;5020128;28;20132;-89
2022/04/19 05:36:12;;;;;;;0.10;0.10;;;;;;;;;;5020406;28;20508;-90
2022/04/19 05:38:38;;;;;;;0.20;0.20;;;;;;;;;;5038386;28;20041;-90
2022/04/19 05:41:04;;;;;;;0.10;0.10;;;;;;;;;;5019530;28;20037;-89
2022/04/19 05:43:30;;;;;;;0.10;0.10;;;;;;;;;;5023560;28;20037;-90
2022/04/19 05:45:59;;;;;;;0.10;0.10;;;;;;;;;;5022880;28;20041;-89
2022/04/19 05:48:25;;;;;;;0.10;0.10;;;;;;;;;;5022668;28;20041;-89
2022/04/19 05:50:51;;;;;;;0.10;0.10;;;;;;;;;;5036412;28;20040;-90
2022/04/19 05:53:17;;;;;;;0.20;0.20;;;;;;;;;;5038523;28;20260;-90
2022/04/19 05:55:43;;;;;;;0.10;0.10;;;;;;;;;;5025877;28;20059;-90
2022/04/19 05:58:09;;;;;;;0.10;0.10;;;;;;;;;;5039356;28;20451;-90
2022/04/19 06:00:35;;;;;;;0.10;0.10;;;;;;;;;;5019573;28;20041;-91
2022/04/19 06:05:46;;;;;;;0.10;0.10;;;;;;;;;;5022239;28;20037;-91
2022/04/19 06:08:12;;;;;;;0.10;0.10;;;;;;;;;;5019713;28;20040;-91
2022/04/19 06:10:38;;;;;;;0.10;0.10;;;;;;;;;;5019395;28;20381;-91
2022/04/19 06:13:04;;;;;;;0.20;0.20;;;;;;;;;;5019463;28;20392;-90
2022/04/19 06:15:31;;;;;;;0.20;0.20;;;;;;;;;;5021850;28;20041;-90
2022/04/19 06:17:57;;;;;;;0.47;0.17;;;;;;;;;;5019583;28;20378;-89
2022/04/19 06:20:23;;;;;;;0.10;0.10;;;;;;;;;;5019165;28;20036;-90
2022/04/19 06:22:49;;;;;;;0.10;0.10;;;;;;;;;;5019265;28;20140;-90
2022/04/19 06:25:15;;;;;;;0.10;0.10;;;;;;;;;;5019090;28;20041;-91
2022/04/19 06:27:41;;;;;;;0.15;0.15;;;;;;;;;;5019323;28;20402;-90
2022/04/19 06:30:07;;;;;;;0.10;0.10;;;;;;;;;;5019231;28;20072;-90
2022/04/19 06:32:34;;;;;;;0.38;0.38;;;;;;;;;;5019633;28;20044;-89
2022/04/19 06:35:00;;;;;;;0.10;0.10;;;;;;;;;;5035323;28;20190;-90
2022/04/19 06:37:26;;;;;;;0.10;0.10;;;;;;;;;;5019522;28;20073;-88
2022/04/19 06:39:52;;;;;;;0.10;0.10;;;;;;;;;;5018742;28;20043;-88
2022/04/19 06:42:19;;;;;;;0.10;0.10;;;;;;;;;;5035519;28;20041;-90
2022/04/19 06:44:46;;;;;;;0.20;0.20;;;;;;;;;;5019114;28;20044;-90
2022/04/19 06:47:12;;;;;;;0.10;0.10;;;;;;;;;;5019852;28;20047;-91
2022/04/19 06:49:38;;;;;;;0.13;0.13;;;;;;;;;;5019234;28;20510;-91
2022/04/19 06:52:06;;;;;;;0.10;0.10;;;;;;;;;;5019064;28;20492;-93
2022/04/19 06:54:32;;;;;;;0.10;0.10;;;;;;;;;;5019186;28;20127;-91
2022/04/19 06:56:58;;;;;;;0.30;0.30;;;;;;;;;;5019495;28;20132;-92
2022/04/19 06:59:25;;;;;;;0.20;0.20;;;;;;;;;;5018923;28;20072;-91
2022/04/19 07:01:51;;;;;;;0.10;0.10;;;;;;;;;;5019542;28;20072;-92
2022/04/19 07:04:17;;;;;;;0.10;0.10;;;;;;;;;;5019222;28;20051;-94
2022/04/19 07:06:43;;;;;;;0.10;0.10;;;;;;;;;;5018991;28;20088;-93
2022/04/19 07:09:09;;;;;;;0.15;0.15;;;;;;;;;;5003312;28;20057;-90
2022/04/19 07:11:37;;;;;;;0.20;0.20;;;;;;;;;;5014926;28;20057;-90
2022/04/19 07:14:26;;;;;;;0.10;0.10;;;;;;;;;;5015184;28;20123;-90
2022/04/19 07:16:52;;;;;;;0.20;0.20;;;;;;;;;;5033968;28;20041;-88
2022/04/19 07:19:18;;;;;;;0.10;0.10;;;;;;;;;;5018066;28;20037;-88
2022/04/19 07:27:13;;;;;;;0.10;0.10;;;;;;;;;;5020505;28;20127;-89
2022/04/19 07:29:40;;;;;;;0.10;0.10;;;;;;;;;;5018201;28;20083;-89
2022/04/19 07:32:06;;;;;;;0.10;0.10;;;;;;;;;;5017969;28;20120;-89
2022/04/19 07:34:33;;;;;;;0.10;0.10;;;;;;;;;;5035117;28;20132;-89
2022/04/19 07:36:59;;;;;;;0.10;0.10;;;;;;;;;;5019392;28;20037;-89
2022/04/19 07:39:25;;;;;;;0.10;0.10;;;;;;;;;;5033984;28;20041;-90
2022/04/19 07:41:51;;;;;;;0.30;0.30;;;;;;;;;;5017778;28;20115;-88
2022/04/19 07:44:18;;;;;;;0.10;0.10;;;;;;;;;;5017739;28;20079;-88
2022/04/19 07:46:44;;;;;;;0.10;0.10;;;;;;;;;;5017902;28;20045;-88
2022/04/19 07:49:10;;;;;;;0.20;0.20;;;;;;;;;;5017882;28;20114;-88
2022/04/19 07:51:38;;;;;;;0.40;0.40;;;;;;;;;;5017896;28;20460;-88
2022/04/19 07:54:04;;;;;;;0.10;0.10;;;;;;;;;;5017945;28;20048;-88
2022/04/19 07:56:30;;;;;;;0.20;0.20;;;;;;;;;;5034191;28;20045;-89
2022/04/19 07:58:57;;;;;;;0.10;0.10;;;;;;;;;;5034060;28;20037;-90
2022/04/19 08:01:26;;;;;;;0.15;0.15;;;;;;;;;;5018001;28;20370;-89
2022/04/19 08:03:52;;;;;;;0.20;0.20;;;;;;;;;;5020832;28;20090;-90
2022/04/19 08:06:18;;;;;;;0.20;0.20;;;;;;;;;;5021903;28;20040;-89
2022/04/19 08:08:44;;;;;;;0.10;0.10;;;;;;;;;;5022083;28;20033;-89
2022/04/19 08:11:10;;;;;;;0.10;0.10;;;;;;;;;;5038034;28;20052;-90
2022/04/19 08:13:36;;;;;;;0.10;0.10;;;;;;;;;;5021947;28;20044;-91
2022/04/19 08:16:02;;;;;;;0.13;0.13;;;;;;;;;;5022245;28;20041;-90
2022/04/19 08:18:28;;;;;;;0.10;0.10;;;;;;;;;;5021789;28;20492;-91
2022/04/19 08:20:55;;;;;;;0.10;0.10;;;;;;;;;;5021791;28;20037;-90
2022/04/19 08:23:37;;;;;;;0.10;0.10;;;;;;;;;;5047049;28;20045;-93
2022/04/19 08:26:10;;;;;;;0.10;0.10;;;;;;;;;;5026460;28;20036;-96
2022/04/19 08:28:36;;;;;;;0.10;0.10;;;;;;;;;;5019198;28;20037;-94
2022/04/19 08:31:05;;;;;;;0.10;0.10;;;;;;;;;;4990998;28;20047;-92
2022/04/19 08:33:31;;;;;;;0.10;0.10;;;;;;;;;;4986978;28;20395;-93
2022/04/19 08:36:01;;;;;;;0.10;0.10;;;;;;;;;;4989310;28;20041;-93
2022/04/19 08:38:27;;;;;;;0.10;0.10;;;;;;;;;;4991863;28;20563;-96
2022/04/19 08:40:53;;;;;;;0.10;0.10;;;;;;;;;;5017453;28;20044;-94
2022/04/19 08:43:20;;;;;;;0.20;0.20;;;;;;;;;;5027228;28;20036;-96
2022/04/19 08:46:15;;;;;;;0.10;0.10;;;;;;;;;;5027118;28;20048;-95
2022/04/19 08:48:41;;;;;;;0.10;0.10;;;;;;;;;;5029014;28;20541;-93
2022/04/19 08:51:10;;;;;;;0.10;0.10;;;;;;;;;;5027476;28;20041;-96
2022/04/19 08:59:05;;;;;;;0.15;0.15;;;;;;;;;;5549224;22;20052;-93
2022/04/19 09:01:31;;;;;;;0.10;0.10;;;;;;;;;;5025130;28;20302;-93
2022/04/19 09:04:04;;;;;;;0.10;0.10;;;;;;;;;;5023870;28;20626;-94
2022/04/19 09:06:53;;;;;;;0.10;0.10;;;;;;;;;;5022914;28;20044;-95
2022/04/19 09:09:25;;;;;;;0.20;0.20;;;;;;;;;;5044516;28;20045;-95
2022/04/19 09:12:05;;;;;;;0.20;0.20;;;;;;;;;;5012564;28;20047;-96
2022/04/19 09:15:03;;;;;;;0.10;0.10;;;;;;;;;;5029883;28;20048;-94
2022/04/19 09:17:42;;;;;;;0.10;0.10;;;;;;;;;;5034250;28;20072;-95
2022/04/19 09:26:05;;;;;;;0.10;0.10;;;;;;;;;;5223126;22;19920;-95
2022/04/19 09:28:34;;;;;;;0.30;0.30;;;;;;;;;;5031457;28;20052;-96
2022/04/19 09:31:08;;;;;;;0.15;0.15;;;;;;;;;;5116356;23;20051;-92
2022/04/19 09:33:34;;;;;;;0.20;0.20;;;;;;;;;;5070469;28;20048;-94
2022/04/19 09:36:04;;;;;;;0.15;0.15;;;;;;;;;;5067828;28;20544;-96
2022/04/19 09:38:43;;;;;;;0.10;0.10;;;;;;;;;;5070177;28;20041;-95
2022/04/19 09:41:28;;;;;;;0.20;0.20;;;;;;;;;;5068037;28;20036;-96
2022/04/19 09:44:07;;;;;;;0.10;0.10;;;;;;;;;;5067512;28;20467;-92
2022/04/19 09:46:33;;;;;;;0.20;0.20;;;;;;;;;;5062550;28;20047;-95
2022/04/19 09:48:59;;;;;;;0.10;0.10;;;;;;;;;;5065262;28;20067;-95
2022/04/19 09:51:32;;;;;;;0.10;0.10;;;;;;;;;;5064526;28;20039;-96
2022/04/19 09:56:35;;;;;;;0.10;0.10;;;;;;;;;;5971259;22;20028;-94
2022/04/19 10:09:36;;;;;;;0.10;0.10;;;;;;;;;;5042830;28;20076;-93
2022/04/19 10:12:13;;;;;;;0.20;0.20;;;;;;;;;;5025686;28;20033;-94
2022/04/19 10:14:40;;;;;;;0.10;0.10;;;;;;;;;;5031857;28;20044;-95
2022/04/19 10:17:09;;;;;;;0.10;0.10;;;;;;;;;;5041884;28;20084;-95
2022/04/19 10:19:36;;;;;;;0.10;0.10;;;;;;;;;;5058715;28;20092;-94
2022/04/19 10:22:09;;;;;;;0.10;0.10;;;;;;;;;;5025681;28;20408;-95
2022/04/19 10:24:52;;;;;;;0.10;0.10;;;;;;;;;;5024066;28;20048;-94
2022/04/19 10:27:18;;;;;;;0.10;0.10;;;;;;;;;;5025599;28;20044;-94
2022/04/19 10:29:45;;;;;;;0.10;0.10;;;;;;;;;;5024249;28;20041;-92
2022/04/19 10:32:11;;;;;;;0.20;0.20;;;;;;;;;;5024405;28;20137;-95
2022/04/19 10:34:43;;;;;;;0.10;0.10;;;;;;;;;;5024741;28;20047;-95
2022/04/19 10:37:13;;;;;;;0.10;0.10;;;;;;;;;;5024097;28;20044;-95
2022/04/19 10:39:45;;;;;;;0.10;0.10;;;;;;;;;;5040940;28;20043;-96
2022/04/19 10:42:32;;;;;;;0.10;0.10;;;;;;;;;;5040571;28;20047;-95
2022/04/19 10:44:58;;;;;;;0.10;0.10;;;;;;;;;;5073087;28;20059;-95
2022/04/19 10:47:27;;;;;;;0.10;0.10;;;;;;;;;;5024265;28;20076;-95
2022/04/19 10:49:59;;;;;;;0.20;0.20;;;;;;;;;;5027900;28;20067;-95
2022/04/19 10:52:40;;;;;;;0.10;0.10;;;;;;;;;;5027124;28;20106;-93
2022/04/19 10:55:25;;;;;;;0.10;0.10;;;;;;;;;;5039363;28;20048;-94
2022/04/19 10:58:06;;;;;;;0.10;0.10;;;;;;;;;;5023272;28;20075;-94
2022/04/19 11:00:47;;;;;;;0.10;0.10;;;;;;;;;;5055861;28;20041;-93
2022/04/19 11:03:17;;;;;;;0.10;0.10;;;;;;;;;;5039375;28;20048;-93
2022/04/19 11:05:53;;;;;;;0.10;0.10;;;;;;;;;;5022976;28;20119;-93
2022/04/19 11:08:31;;;;;;;0.10;0.10;;;;;;;;;;5039544;28;20051;-94
2022/04/19 11:10:57;;;;;;;0.10;0.10;;;;;;;;;;5056037;28;20456;-95
2022/04/19 11:13:27;;;;;;;0.10;0.10;;;;;;;;;;5039149;28;20044;-94
2022/04/19 11:16:05;;;;;;;0.10;0.10;;;;;;;;;;5023058;28;20395;-94
2022/04/19 11:18:37;;;;;;;0.10;0.10;;;;;;;;;;5038981;28;20048;-93
2022/04/19 11:21:07;;;;;;;0.10;0.10;;;;;;;;;;5039524;28;20051;-92
2022/04/19 11:23:43;;;;;;;0.10;0.10;;;;;;;;;;5022676;28;20544;-94
2022/04/19 11:26:28;;;;;;;0.10;0.10;;;;;;;;;;5023141;28;20039;-94
2022/04/19 11:29:10;;;;;;;0.10;0.10;;;;;;;;;;5041444;28;20036;-95
2022/04/19 11:49:10;;;;;;;0.32;0.32;;;;;;;;;;5623949;23;20079;-96
2022/04/19 11:51:37;;;;;;;0.10;0.10;;;;;;;;;;4930131;29;20058;-96
2022/04/19 11:54:08;;;;;;;0.10;0.10;;;;;;;;;;4894189;29;20111;-93
2022/04/19 11:56:38;;;;;;;0.10;0.10;;;;;;;;;;4905744;29;20134;-92
2022/04/19 11:59:07;;;;;;;0.10;0.10;;;;;;;;;;4903417;29;20044;-96
2022/04/19 12:01:35;;;;;;;0.10;0.10;;;;;;;;;;4903459;29;20040;-93
2022/04/19 12:04:10;;;;;;;0.10;0.10;;;;;;;;;;4887227;29;20043;-94
2022/04/19 12:06:39;;;;;;;0.10;0.10;;;;;;;;;;4916974;29;20236;-95
2022/04/19 12:09:22;;;;;;;0.20;0.20;;;;;;;;;;4889078;29;20055;-96
2022/04/19 12:12:08;;;;;;;0.10;0.10;;;;;;;;;;4914125;29;20079;-96
2022/04/19 12:14:37;;;;;;;0.10;0.10;;;;;;;;;;4895905;29;20051;-94
2022/04/19 12:17:31;;;;;;;0.10;0.10;;;;;;;;;;4896120;29;20055;-95
2022/04/19 12:20:01;;;;;;;0.10;0.10;;;;;;;;;;4895164;29;20394;-93
2022/04/19 12:22:27;;;;;;;0.15;0.15;;;;;;;;;;4883988;29;20040;-93
2022/04/19 12:25:03;;;;;;;0.10;0.10;;;;;;;;;;4884009;29;20054;-93
2022/04/19 12:27:34;;;;;;;0.10;0.10;;;;;;;;;;4899973;29;20048;-94
2022/04/19 12:30:04;;;;;;;0.10;0.10;;;;;;;;;;4886109;29;20085;-91
2022/04/19 12:32:49;;;;;;;0.10;0.10;;;;;;;;;;4884747;29;20405;-93
2022/04/19 12:35:17;;;;;;;0.10;0.10;;;;;;;;;;4900370;29;20043;-94
2022/04/19 12:37:44;;;;;;;0.10;0.10;;;;;;;;;;4884227;29;20044;-92
2022/04/19 12:40:10;;;;;;;0.10;0.10;;;;;;;;;;4883994;29;20076;-94
2022/04/19 12:43:12;;;;;;;0.10;0.10;;;;;;;;;;4883868;29;20044;-92
2022/04/19 12:45:40;;;;;;;0.20;0.20;;;;;;;;;;4899031;29;20048;-93
2022/04/19 12:48:07;;;;;;;0.10;0.10;;;;;;;;;;4883853;29;20151;-92
2022/04/19 12:50:34;;;;;;;0.10;0.10;;;;;;;;;;4887186;29;20060;-93
2022/04/19 12:53:02;;;;;;;0.10;0.10;;;;;;;;;;4889576;29;20050;-94
2022/04/19 12:55:28;;;;;;;0.47;0.45;;;;;;;;;;4887713;29;20096;-91
2022/04/19 12:58:10;;;;;;;0.10;0.10;;;;;;;;;;4887020;29;20050;-93
2022/04/19 13:00:36;;;;;;;0.10;0.10;;;;;;;;;;4887084;29;20044;-91
2022/04/19 13:03:02;;;;;;;0.10;0.10;;;;;;;;;;4886869;29;20445;-89
2022/04/19 13:13:45;;;;;;;0.13;0.13;;;;;;;;;;4905168;29;20055;-92
2022/04/19 13:16:11;;;;;;;0.43;0.43;;;;;;;;;;4902908;29;20047;-93
2022/04/19 13:18:40;;;;;;;0.20;0.20;;;;;;;;;;4887101;29;20054;-92
2022/04/19 13:21:06;;;;;;;0.10;0.10;;;;;;;;;;4902666;29;20040;-91
2022/04/19 13:23:32;;;;;;;0.10;0.10;;;;;;;;;;4887607;29;20079;-92
2022/04/19 13:25:59;;;;;;;0.20;0.20;;;;;;;;;;4902582;29;20036;-93
2022/04/19 13:28:26;;;;;;;0.10;0.10;;;;;;;;;;4902568;29;20052;-94
2022/04/19 13:30:55;;;;;;;0.30;0.20;;;;;;;;;;4902752;29;20072;-95
2022/04/19 13:33:21;;;;;;;0.10;0.10;;;;;;;;;;4886875;29;20044;-94
2022/04/19 13:35:47;;;;;;;0.20;0.20;;;;;;;;;;4887330;29;20048;-93
2022/04/19 13:38:26;;;;;;;0.10;0.10;;;;;;;;;;4902622;29;20135;-92
2022/04/19 13:40:52;;;;;;;0.22;0.22;;;;;;;;;;4888721;29;20047;-93
2022/04/19 13:43:18;;;;;;;0.10;0.10;;;;;;;;;;4886869;29;20047;-93
2022/04/19 13:45:44;;;;;;;0.10;0.10;;;;;;;;;;4886918;29;20043;-92
2022/04/19 13:48:13;;;;;;;0.20;0.20;;;;;;;;;;4887583;29;20197;-91
2022/04/19 13:50:39;;;;;;;0.10;0.10;;;;;;;;;;4886762;29;20109;-92
2022/04/19 13:53:05;;;;;;;0.20;0.20;;;;;;;;;;4887133;29;20063;-92
2022/04/19 13:55:31;;;;;;;0.10;0.10;;;;;;;;;;4888422;29;20048;-94
2022/04/19 13:57:57;;;;;;;0.10;0.10;;;;;;;;;;4902340;29;20036;-92
2022/04/19 14:00:24;;;;;;;0.10;0.10;;;;;;;;;;4907118;29;20070;-92
2022/04/19 14:02:50;;;;;;;0.10;0.10;;;;;;;;;;4899564;29;20046;-94
2022/04/19 14:05:18;;;;;;;0.10;0.10;;;;;;;;;;4887829;29;20044;-93
2022/04/19 14:07:46;;;;;;;0.10;0.10;;;;;;;;;;4898738;29;20048;-92
2022/04/19 14:10:12;;;;;;;0.82;0.82;;;;;;;;;;4922305;29;20079;-91
2022/04/19 14:12:38;;;;;;;0.20;0.20;;;;;;;;;;4894651;29;20099;-93
2022/04/19 14:15:05;;;;;;;0.10;0.10;;;;;;;;;;4886435;29;20087;-95
2022/04/19 14:17:33;;;;;;;0.10;0.10;;;;;;;;;;4886187;29;20052;-95
2022/04/19 14:19:59;;;;;;;0.10;0.10;;;;;;;;;;4901967;29;20040;-95
2022/04/19 14:22:26;;;;;;;0.10;0.10;;;;;;;;;;4901625;29;20064;-95
2022/04/19 14:24:55;;;;;;;0.43;0.43;;;;;;;;;;4902763;29;20104;-94
2022/04/19 14:27:21;;;;;;;0.20;0.20;;;;;;;;;;4886223;29;20484;-95
2022/04/19 14:35:21;;;;;;;0.10;0.10;;;;;;;;;;4904729;29;20051;-94
2022/04/19 14:37:47;;;;;;;0.30;0.30;;;;;;;;;;4885626;29;20314;-94
2022/04/19 14:40:13;;;;;;;0.10;0.10;;;;;;;;;;4901746;29;20040;-94
2022/04/19 14:42:39;;;;;;;0.10;0.10;;;;;;;;;;4885446;29;20131;-93
2022/04/19 14:45:07;;;;;;;0.10;0.10;;;;;;;;;;4886038;29;20083;-93
2022/04/19 14:47:33;;;;;;;0.10;0.10;;;;;;;;;;4885653;29;20223;-92
2022/04/19 14:49:59;;;;;;;0.20;0.20;;;;;;;;;;4885221;29;20195;-95
2022/04/19 14:52:25;;;;;;;0.20;0.20;;;;;;;;;;4885798;29;20492;-96
2022/04/19 14:57:27;;;;;;;0.20;0.20;;;;;;;;;;5282338;23;20059;-93
2022/04/19 14:59:54;;;;;;;0.10;0.10;;;;;;;;;;4904426;29;20645;-94
2022/04/19 15:02:21;;;;;;;0.10;0.10;;;;;;;;;;4912248;29;20044;-95
2022/04/19 15:04:47;;;;;;;0.10;0.10;;;;;;;;;;4885485;29;20205;-93
2022/04/19 15:07:13;;;;;;;0.80;0.30;;;;;;;;;;4885815;29;20043;-95
2022/04/19 15:09:39;;;;;;;0.10;0.10;;;;;;;;;;4885738;29;20138;-95
2022/04/19 15:12:08;;;;;;;0.10;0.10;;;;;;;;;;4885205;29;20054;-94
2022/04/19 15:14:35;;;;;;;0.10;0.10;;;;;;;;;;4885895;29;20044;-95
2022/04/19 15:17:03;;;;;;;0.10;0.10;;;;;;;;;;4886346;29;20054;-94
2022/04/19 15:19:29;;;;;;;0.15;0.15;;;;;;;;;;4885530;29;20130;-96
2022/04/19 15:21:56;;;;;;;0.10;0.10;;;;;;;;;;4885305;29;20090;-93
2022/04/19 15:24:22;;;;;;;0.15;0.15;;;;;;;;;;4885325;29;20404;-95
2022/04/19 15:26:48;;;;;;;0.10;0.10;;;;;;;;;;4885359;29;20048;-93
2022/04/19 15:29:15;;;;;;;0.20;0.20;;;;;;;;;;4885102;29;20047;-94
2022/04/19 15:31:41;;;;;;;0.10;0.10;;;;;;;;;;4884570;29;20281;-93
2022/04/19 15:34:07;;;;;;;0.10;0.10;;;;;;;;;;4885434;29;20088;-94
2022/04/19 15:36:33;;;;;;;0.10;0.10;;;;;;;;;;4885070;29;20048;-93
2022/04/19 15:39:00;;;;;;;0.10;0.10;;;;;;;;;;4885138;29;20044;-94
2022/04/19 15:41:26;;;;;;;0.10;0.10;;;;;;;;;;4884874;29;20047;-94
2022/04/19 15:43:55;;;;;;;0.10;0.10;;;;;;;;;;4901190;29;20031;-93
2022/04/19 15:46:23;;;;;;;0.10;0.10;;;;;;;;;;4884875;29;20231;-94
2022/04/19 15:48:49;;;;;;;0.20;0.10;;;;;;;;;;4885056;29;20059;-94
2022/04/19 15:51:17;;;;;;;0.13;0.13;;;;;;;;;;4885045;29;20040;-94
2022/04/19 15:53:45;;;;;;;0.20;0.20;;;;;;;;;;4884791;29;20040;-93
2022/04/19 15:56:11;;;;;;;0.43;0.20;;;;;;;;;;4884963;29;20098;-93
2022/04/19 15:58:37;;;;;;;0.10;0.10;;;;;;;;;;4884867;29;20055;-94
2022/04/19 16:01:05;;;;;;;0.30;0.30;;;;;;;;;;4884736;29;20037;-94
2022/04/19 16:03:31;;;;;;;0.10;0.10;;;;;;;;;;4884847;29;20040;-94
2022/04/19 16:05:57;;;;;;;0.55;0.25;;;;;;;;;;4884890;29;20040;-93